Date,TemperatureHighF,TemperatureAvgF,TemperatureLowF,DewpointHighF,DewpointAvgF,DewpointLowF,HumidityHigh,HumidityAvg,HumidityLow,PressureMaxIn,PressureMinIn,WindSpeedMaxMPH,WindSpeedAvgMPH,GustSpeedMaxMPH,PrecipitationSumIn
2013-3-1,64,58,52,50,45,38,75,62,52,30.04,29.93,13,1,13,0.00
2013-3-2,62,54,46,46,41,36,81,62,51,30.09,29.99,19,2,19,0.00
2013-3-3,59,48,42,42,36,29,71,61,50,30.17,30.01,13,2,13,0.00
2013-3-4,65,51,39,44,37,29,94,60,40,30.25,30.14,13,1,13,0.00
2013-3-5,75,57,38,61,51,37,98,81,50,30.18,30.04,10,1,10,0.00
2013-3-6,66,60,53,64,48,40,94,67,46,30.16,29.97,24,3,24,0.02
2013-3-7,63,52,42,46,39,33,94,64,38,30.24,30.15,15,2,17,0.00
2013-3-8,73,55,38,51,45,37,98,73,38,30.24,30.14,9,1,9,0.00
2013-3-9,75,60,45,55,49,43,98,70,34,30.23,30.14,12,1,12,0.00
2013-3-10,80,66,57,60,56,52,90,70,44,30.16,30.05,15,1,15,0.00
2013-3-11,77,66,57,62,59,55,95,79,56,30.10,29.88,14,1,14,0.00
2013-3-12,70,64,58,67,60,52,97,85,72,30.06,29.85,13,2,13,0.32
2013-3-13,69,62,57,53,47,35,81,60,32,30.20,30.05,16,3,16,0.00
2013-3-14,59,59,58,52,48,40,79,69,51,30.20,30.18,16,2,16,0.00
2013-3-15,72,60,46,46,43,31,95,58,27,30.30,30.18,10,1,10,0.00
2013-3-16,76,55,42,58,48,41,99,82,32,30.20,30.09,8,0,8,0.00
2013-3-17,75,60,48,61,55,47,99,86,58,30.14,30.00,6,0,6,0.00
2013-3-18,74,68,59,68,63,57,96,86,76,30.04,29.87,12,1,12,0.00
2013-3-19,86,70,61,70,64,60,99,84,55,30.02,29.90,8,0,8,0.00
2013-3-20,73,66,58,67,63,56,98,91,74,29.98,29.82,16,0,16,0.18
2013-3-21,66,57,44,59,46,32,98,69,34,30.01,29.89,14,1,14,0.00
2013-3-22,79,60,42,68,52,41,97,78,40,30.01,29.89,11,1,11,1.15
2013-3-23,83,72,66,76,69,65,98,92,76,29.98,29.81,10,1,10,0.01
2013-3-24,80,73,71,75,71,69,97,94,82,29.82,29.69,10,2,10,0.00
2013-3-25,64,60,56,52,46,41,71,60,47,30.07,29.88,18,3,18,0.00
2013-3-26,60,55,49,47,39,34,66,56,46,30.27,30.06,20,3,20,0.00
2013-3-27,60,49,40,45,36,29,92,61,44,30.35,30.23,16,2,16,0.00
2013-3-28,69,55,40,46,40,31,96,61,29,30.32,30.22,13,1,13,0.00
2013-3-29,76,59,44,54,46,35,96,69,24,30.34,30.21,10,1,10,0.00
2013-3-30,78,62,45,58,51,44,98,73,36,30.26,30.15,9,1,9,0.00
2013-3-31,79,65,53,62,57,50,98,77,41,30.17,30.01,12,1,12,0.00